sensor_id;sensor_type;location;lat;lon;timestamp;temperature;humidity
25192;DHT22;13143;50.924;5.320;2022-09-17T00:01:09;12.60;99.90
25192;DHT22;13143;50.924;5.320;2022-09-17T00:03:38;12.50;99.90
25192;DHT22;13143;50.924;5.320;2022-09-17T00:06:09;12.50;99.90
25192;DHT22;13143;50.924;5.320;2022-09-17T00:08:38;12.50;99.90
25192;DHT22;13143;50.924;5.320;2022-09-17T00:11:16;12.50;99.90
25192;DHT22;13143;50.924;5.320;2022-09-17T00:13:43;12.50;99.90
25192;DHT22;13143;50.924;5.320;2022-09-17T00:16:09;12.50;99.90
25192;DHT22;13143;50.924;5.320;2022-09-17T00:18:35;12.50;99.90
25192;DHT22;13143;50.924;5.320;2022-09-17T00:21:05;12.50;99.90
25192;DHT22;13143;50.924;5.320;2022-09-17T00:23:31;12.50;99.90
25192;DHT22;13143;50.924;5.320;2022-09-17T00:25:56;12.50;99.90
25192;DHT22;13143;50.924;5.320;2022-09-17T00:28:23;12.50;99.90
25192;DHT22;13143;50.924;5.320;2022-09-17T00:30:49;12.50;99.90
25192;DHT22;13143;50.924;5.320;2022-09-17T00:33:16;12.50;99.90
25192;DHT22;13143;50.924;5.320;2022-09-17T00:35:43;12.50;99.90
25192;DHT22;13143;50.924;5.320;2022-09-17T00:38:09;12.50;99.90
25192;DHT22;13143;50.924;5.320;2022-09-17T00:40:36;12.50;99.90
25192;DHT22;13143;50.924;5.320;2022-09-17T00:43:02;12.50;99.90
25192;DHT22;13143;50.924;5.320;2022-09-17T00:45:28;12.50;99.90
25192;DHT22;13143;50.924;5.320;2022-09-17T00:50:30;12.50;99.90
25192;DHT22;13143;50.924;5.320;2022-09-17T00:53:10;12.50;99.90
25192;DHT22;13143;50.924;5.320;2022-09-17T00:55:47;12.50;99.90
25192;DHT22;13143;50.924;5.320;2022-09-17T00:58:16;12.40;99.90
25192;DHT22;13143;50.924;5.320;2022-09-17T01:00:43;12.50;99.90
25192;DHT22;13143;50.924;5.320;2022-09-17T01:03:09;12.40;99.90
25192;DHT22;13143;50.924;5.320;2022-09-17T01:11:41;12.40;99.90
25192;DHT22;13143;50.924;5.320;2022-09-17T01:14:26;12.40;99.90
25192;DHT22;13143;50.924;5.320;2022-09-17T01:17:02;12.40;99.90
25192;DHT22;13143;50.924;5.320;2022-09-17T01:25:22;12.40;99.90
25192;DHT22;13143;50.924;5.320;2022-09-17T01:28:21;12.40;99.90
25192;DHT22;13143;50.924;5.320;2022-09-17T01:33:57;12.40;99.90
25192;DHT22;13143;50.924;5.320;2022-09-17T01:39:35;12.40;99.90
25192;DHT22;13143;50.924;5.320;2022-09-17T01:44:30;12.40;99.90
25192;DHT22;13143;50.924;5.320;2022-09-17T01:47:06;12.40;99.90
25192;DHT22;13143;50.924;5.320;2022-09-17T01:49:35;12.40;99.90
25192;DHT22;13143;50.924;5.320;2022-09-17T01:52:03;12.40;99.90
25192;DHT22;13143;50.924;5.320;2022-09-17T01:55:03;12.40;99.90
25192;DHT22;13143;50.924;5.320;2022-09-17T01:57:57;12.40;99.90
25192;DHT22;13143;50.924;5.320;2022-09-17T02:00:25;12.40;99.90
25192;DHT22;13143;50.924;5.320;2022-09-17T02:08:08;12.40;99.90
25192;DHT22;13143;50.924;5.320;2022-09-17T02:10:43;12.40;99.90
25192;DHT22;13143;50.924;5.320;2022-09-17T02:13:32;12.40;99.90
25192;DHT22;13143;50.924;5.320;2022-09-17T02:16:06;12.40;99.90
25192;DHT22;13143;50.924;5.320;2022-09-17T02:18:41;12.40;99.90
25192;DHT22;13143;50.924;5.320;2022-09-17T02:21:27;12.40;99.90
25192;DHT22;13143;50.924;5.320;2022-09-17T02:27:06;12.40;99.90
25192;DHT22;13143;50.924;5.320;2022-09-17T02:29:41;12.40;99.90
25192;DHT22;13143;50.924;5.320;2022-09-17T02:32:08;12.40;99.90
25192;DHT22;13143;50.924;5.320;2022-09-17T02:34:34;12.40;99.90
25192;DHT22;13143;50.924;5.320;2022-09-17T02:37:00;12.40;99.90
25192;DHT22;13143;50.924;5.320;2022-09-17T02:39:27;12.40;99.90
25192;DHT22;13143;50.924;5.320;2022-09-17T02:48:06;12.40;99.90
25192;DHT22;13143;50.924;5.320;2022-09-17T02:50:55;12.40;99.90
25192;DHT22;13143;50.924;5.320;2022-09-17T02:56:19;12.40;99.90
25192;DHT22;13143;50.924;5.320;2022-09-17T02:59:00;12.40;99.90
25192;DHT22;13143;50.924;5.320;2022-09-17T03:01:39;12.40;99.90
25192;DHT22;13143;50.924;5.320;2022-09-17T03:04:09;12.40;99.90
25192;DHT22;13143;50.924;5.320;2022-09-17T03:06:35;12.40;99.90
25192;DHT22;13143;50.924;5.320;2022-09-17T03:09:03;12.40;99.90
25192;DHT22;13143;50.924;5.320;2022-09-17T03:11:28;12.40;99.90
25192;DHT22;13143;50.924;5.320;2022-09-17T03:13:55;12.50;99.90
25192;DHT22;13143;50.924;5.320;2022-09-17T03:16:22;12.50;99.90
25192;DHT22;13143;50.924;5.320;2022-09-17T03:18:47;12.40;99.90
25192;DHT22;13143;50.924;5.320;2022-09-17T03:21:13;12.50;99.90
25192;DHT22;13143;50.924;5.320;2022-09-17T03:23:38;12.50;99.90
25192;DHT22;13143;50.924;5.320;2022-09-17T03:26:04;12.50;99.90
25192;DHT22;13143;50.924;5.320;2022-09-17T03:28:30;12.50;99.90
25192;DHT22;13143;50.924;5.320;2022-09-17T03:30:55;12.40;99.90
25192;DHT22;13143;50.924;5.320;2022-09-17T03:33:21;12.40;99.90
25192;DHT22;13143;50.924;5.320;2022-09-17T03:35:47;12.50;99.90
25192;DHT22;13143;50.924;5.320;2022-09-17T03:38:13;12.50;99.90
25192;DHT22;13143;50.924;5.320;2022-09-17T03:40:39;12.50;99.90
25192;DHT22;13143;50.924;5.320;2022-09-17T03:43:05;12.40;99.90
25192;DHT22;13143;50.924;5.320;2022-09-17T03:45:31;12.40;99.90
25192;DHT22;13143;50.924;5.320;2022-09-17T03:47:56;12.50;99.90
25192;DHT22;13143;50.924;5.320;2022-09-17T03:50:22;12.50;99.90
25192;DHT22;13143;50.924;5.320;2022-09-17T03:52:48;12.40;99.90
25192;DHT22;13143;50.924;5.320;2022-09-17T03:55:13;12.50;99.90
25192;DHT22;13143;50.924;5.320;2022-09-17T03:57:40;12.50;99.90
25192;DHT22;13143;50.924;5.320;2022-09-17T04:00:06;12.40;99.90
25192;DHT22;13143;50.924;5.320;2022-09-17T04:02:32;12.40;99.90
25192;DHT22;13143;50.924;5.320;2022-09-17T04:04:58;12.40;99.90
25192;DHT22;13143;50.924;5.320;2022-09-17T04:07:24;12.50;99.90
25192;DHT22;13143;50.924;5.320;2022-09-17T04:09:49;12.40;99.90
25192;DHT22;13143;50.924;5.320;2022-09-17T04:12:15;12.50;99.90
25192;DHT22;13143;50.924;5.320;2022-09-17T04:14:41;12.40;99.90
25192;DHT22;13143;50.924;5.320;2022-09-17T04:17:06;12.40;99.90
25192;DHT22;13143;50.924;5.320;2022-09-17T04:19:32;12.50;99.90
25192;DHT22;13143;50.924;5.320;2022-09-17T04:21:57;12.50;99.90
25192;DHT22;13143;50.924;5.320;2022-09-17T04:24:23;12.50;99.90
25192;DHT22;13143;50.924;5.320;2022-09-17T04:26:49;12.40;99.90
25192;DHT22;13143;50.924;5.320;2022-09-17T04:29:14;12.40;99.90
25192;DHT22;13143;50.924;5.320;2022-09-17T04:31:40;12.40;99.90
25192;DHT22;13143;50.924;5.320;2022-09-17T04:34:06;12.40;99.90
25192;DHT22;13143;50.924;5.320;2022-09-17T04:36:31;12.40;99.90
25192;DHT22;13143;50.924;5.320;2022-09-17T04:38:57;12.40;99.90
25192;DHT22;13143;50.924;5.320;2022-09-17T04:41:23;12.40;99.90
25192;DHT22;13143;50.924;5.320;2022-09-17T04:43:48;12.40;99.90
25192;DHT22;13143;50.924;5.320;2022-09-17T04:46:14;12.40;99.90
25192;DHT22;13143;50.924;5.320;2022-09-17T04:48:41;12.40;99.90
25192;DHT22;13143;50.924;5.320;2022-09-17T04:51:07;12.40;99.90
25192;DHT22;13143;50.924;5.320;2022-09-17T04:53:32;12.40;99.90
25192;DHT22;13143;50.924;5.320;2022-09-17T04:55:58;12.40;99.90
25192;DHT22;13143;50.924;5.320;2022-09-17T04:58:24;12.40;99.90
25192;DHT22;13143;50.924;5.320;2022-09-17T05:00:49;12.40;99.90
25192;DHT22;13143;50.924;5.320;2022-09-17T05:03:15;12.40;99.90
25192;DHT22;13143;50.924;5.320;2022-09-17T05:05:40;12.40;99.90
25192;DHT22;13143;50.924;5.320;2022-09-17T05:08:06;12.40;99.90
25192;DHT22;13143;50.924;5.320;2022-09-17T05:10:33;12.40;99.90
25192;DHT22;13143;50.924;5.320;2022-09-17T05:12:59;12.40;99.90
25192;DHT22;13143;50.924;5.320;2022-09-17T05:15:25;12.40;99.90
25192;DHT22;13143;50.924;5.320;2022-09-17T05:17:52;12.40;99.90
25192;DHT22;13143;50.924;5.320;2022-09-17T05:20:18;12.30;99.90
25192;DHT22;13143;50.924;5.320;2022-09-17T05:22:48;12.40;99.90
25192;DHT22;13143;50.924;5.320;2022-09-17T05:25:15;12.30;99.90
25192;DHT22;13143;50.924;5.320;2022-09-17T05:27:41;12.40;99.90
25192;DHT22;13143;50.924;5.320;2022-09-17T05:30:08;12.30;99.90
25192;DHT22;13143;50.924;5.320;2022-09-17T05:32:35;12.40;99.90
25192;DHT22;13143;50.924;5.320;2022-09-17T05:35:02;12.30;99.90
25192;DHT22;13143;50.924;5.320;2022-09-17T05:37:28;12.30;99.90
25192;DHT22;13143;50.924;5.320;2022-09-17T05:39:53;12.30;99.90
25192;DHT22;13143;50.924;5.320;2022-09-17T05:42:19;12.30;99.90
25192;DHT22;13143;50.924;5.320;2022-09-17T05:44:45;12.30;99.90
25192;DHT22;13143;50.924;5.320;2022-09-17T05:47:10;12.30;99.90
25192;DHT22;13143;50.924;5.320;2022-09-17T05:49:36;12.30;99.90
25192;DHT22;13143;50.924;5.320;2022-09-17T05:52:01;12.30;99.90
25192;DHT22;13143;50.924;5.320;2022-09-17T05:54:28;12.30;99.90
25192;DHT22;13143;50.924;5.320;2022-09-17T05:56:54;12.30;99.90
25192;DHT22;13143;50.924;5.320;2022-09-17T05:59:20;12.30;99.90
25192;DHT22;13143;50.924;5.320;2022-09-17T06:01:46;12.30;99.90
25192;DHT22;13143;50.924;5.320;2022-09-17T06:04:12;12.30;99.90
25192;DHT22;13143;50.924;5.320;2022-09-17T06:06:38;12.30;99.90
25192;DHT22;13143;50.924;5.320;2022-09-17T06:09:06;12.30;99.90
25192;DHT22;13143;50.924;5.320;2022-09-17T06:11:33;12.30;99.90
25192;DHT22;13143;50.924;5.320;2022-09-17T06:13:58;12.30;99.90
25192;DHT22;13143;50.924;5.320;2022-09-17T06:16:24;12.30;99.90
25192;DHT22;13143;50.924;5.320;2022-09-17T06:18:50;12.30;99.90
25192;DHT22;13143;50.924;5.320;2022-09-17T06:21:17;12.30;99.90
25192;DHT22;13143;50.924;5.320;2022-09-17T06:23:44;12.30;99.90
25192;DHT22;13143;50.924;5.320;2022-09-17T06:26:10;12.30;99.90
25192;DHT22;13143;50.924;5.320;2022-09-17T06:28:36;12.30;99.90
25192;DHT22;13143;50.924;5.320;2022-09-17T06:31:04;12.30;99.90
25192;DHT22;13143;50.924;5.320;2022-09-17T06:33:31;12.30;99.90
25192;DHT22;13143;50.924;5.320;2022-09-17T06:36:02;12.30;99.90
25192;DHT22;13143;50.924;5.320;2022-09-17T06:38:28;12.30;99.90
25192;DHT22;13143;50.924;5.320;2022-09-17T06:40:54;12.30;99.90
25192;DHT22;13143;50.924;5.320;2022-09-17T06:43:21;12.30;99.90
25192;DHT22;13143;50.924;5.320;2022-09-17T06:45:53;12.30;99.90
25192;DHT22;13143;50.924;5.320;2022-09-17T06:48:20;12.30;99.90
25192;DHT22;13143;50.924;5.320;2022-09-17T06:50:45;12.30;99.90
25192;DHT22;13143;50.924;5.320;2022-09-17T06:53:11;12.30;99.90
25192;DHT22;13143;50.924;5.320;2022-09-17T06:55:37;12.30;99.90
25192;DHT22;13143;50.924;5.320;2022-09-17T06:58:02;12.30;99.90
25192;DHT22;13143;50.924;5.320;2022-09-17T07:00:28;12.30;99.90
25192;DHT22;13143;50.924;5.320;2022-09-17T07:02:58;12.30;99.90
25192;DHT22;13143;50.924;5.320;2022-09-17T07:05:26;12.30;99.90
25192;DHT22;13143;50.924;5.320;2022-09-17T07:07:52;12.30;99.90
25192;DHT22;13143;50.924;5.320;2022-09-17T07:10:19;12.40;99.90
25192;DHT22;13143;50.924;5.320;2022-09-17T07:12:45;12.30;99.90
25192;DHT22;13143;50.924;5.320;2022-09-17T07:15:11;12.40;99.90
25192;DHT22;13143;50.924;5.320;2022-09-17T07:17:38;12.40;99.90
25192;DHT22;13143;50.924;5.320;2022-09-17T07:20:08;12.40;99.90
25192;DHT22;13143;50.924;5.320;2022-09-17T07:22:34;12.40;99.90
25192;DHT22;13143;50.924;5.320;2022-09-17T07:25:00;12.40;99.90
25192;DHT22;13143;50.924;5.320;2022-09-17T07:27:29;12.40;99.90
25192;DHT22;13143;50.924;5.320;2022-09-17T07:29:55;12.40;99.90
25192;DHT22;13143;50.924;5.320;2022-09-17T07:32:21;12.40;99.90
25192;DHT22;13143;50.924;5.320;2022-09-17T07:34:47;12.40;99.90
25192;DHT22;13143;50.924;5.320;2022-09-17T07:37:14;12.50;99.90
25192;DHT22;13143;50.924;5.320;2022-09-17T07:39:40;12.50;99.90
25192;DHT22;13143;50.924;5.320;2022-09-17T07:42:06;12.50;99.90
25192;DHT22;13143;50.924;5.320;2022-09-17T07:44:32;12.50;99.90
25192;DHT22;13143;50.924;5.320;2022-09-17T07:46:58;12.50;99.90
25192;DHT22;13143;50.924;5.320;2022-09-17T07:49:23;12.60;99.90
25192;DHT22;13143;50.924;5.320;2022-09-17T07:51:50;12.60;99.90
25192;DHT22;13143;50.924;5.320;2022-09-17T07:54:15;12.60;99.90
25192;DHT22;13143;50.924;5.320;2022-09-17T07:56:41;12.60;99.90
25192;DHT22;13143;50.924;5.320;2022-09-17T07:59:08;12.70;99.90
25192;DHT22;13143;50.924;5.320;2022-09-17T08:01:34;12.70;99.90
25192;DHT22;13143;50.924;5.320;2022-09-17T08:04:01;12.70;99.90
25192;DHT22;13143;50.924;5.320;2022-09-17T08:06:27;12.70;99.90
25192;DHT22;13143;50.924;5.320;2022-09-17T08:08:54;12.80;99.90
25192;DHT22;13143;50.924;5.320;2022-09-17T08:11:22;12.80;99.90
25192;DHT22;13143;50.924;5.320;2022-09-17T08:13:50;12.80;99.90
25192;DHT22;13143;50.924;5.320;2022-09-17T08:16:17;12.80;99.90
25192;DHT22;13143;50.924;5.320;2022-09-17T08:18:44;12.80;99.90
25192;DHT22;13143;50.924;5.320;2022-09-17T08:21:14;12.80;99.90
25192;DHT22;13143;50.924;5.320;2022-09-17T08:23:42;12.80;99.90
25192;DHT22;13143;50.924;5.320;2022-09-17T08:26:16;12.90;99.90
25192;DHT22;13143;50.924;5.320;2022-09-17T08:28:46;12.90;99.90
25192;DHT22;13143;50.924;5.320;2022-09-17T08:31:13;12.90;99.90
25192;DHT22;13143;50.924;5.320;2022-09-17T08:33:40;13.00;99.90
25192;DHT22;13143;50.924;5.320;2022-09-17T08:36:08;13.00;99.90
25192;DHT22;13143;50.924;5.320;2022-09-17T08:38:35;13.00;99.90
25192;DHT22;13143;50.924;5.320;2022-09-17T08:43:32;13.00;99.90
25192;DHT22;13143;50.924;5.320;2022-09-17T08:45:59;13.10;99.90
25192;DHT22;13143;50.924;5.320;2022-09-17T08:48:33;13.10;99.90
25192;DHT22;13143;50.924;5.320;2022-09-17T08:51:10;13.10;99.90
25192;DHT22;13143;50.924;5.320;2022-09-17T08:56:31;13.10;99.90
25192;DHT22;13143;50.924;5.320;2022-09-17T08:59:24;13.20;99.90
25192;DHT22;13143;50.924;5.320;2022-09-17T09:02:16;13.20;99.90
25192;DHT22;13143;50.924;5.320;2022-09-17T09:04:55;13.20;99.90
25192;DHT22;13143;50.924;5.320;2022-09-17T09:07:33;13.30;99.90
25192;DHT22;13143;50.924;5.320;2022-09-17T09:12:36;13.30;99.90
25192;DHT22;13143;50.924;5.320;2022-09-17T09:15:18;13.30;99.90
25192;DHT22;13143;50.924;5.320;2022-09-17T09:17:47;13.30;99.90
25192;DHT22;13143;50.924;5.320;2022-09-17T09:23:26;13.40;99.90
25192;DHT22;13143;50.924;5.320;2022-09-17T09:26:16;13.40;99.90
25192;DHT22;13143;50.924;5.320;2022-09-17T09:34:13;13.50;99.90
25192;DHT22;13143;50.924;5.320;2022-09-17T09:36:39;13.50;99.90
25192;DHT22;13143;50.924;5.320;2022-09-17T09:42:03;13.50;99.90
25192;DHT22;13143;50.924;5.320;2022-09-17T09:44:31;13.60;99.90
25192;DHT22;13143;50.924;5.320;2022-09-17T09:50:16;13.60;99.90
25192;DHT22;13143;50.924;5.320;2022-09-17T10:00:52;13.70;99.90
25192;DHT22;13143;50.924;5.320;2022-09-17T10:03:30;13.80;99.90
25192;DHT22;13143;50.924;5.320;2022-09-17T10:06:03;13.80;99.90
25192;DHT22;13143;50.924;5.320;2022-09-17T10:08:33;13.80;99.90
25192;DHT22;13143;50.924;5.320;2022-09-17T10:13:38;13.90;99.90
25192;DHT22;13143;50.924;5.320;2022-09-17T10:16:27;13.90;99.90
25192;DHT22;13143;50.924;5.320;2022-09-17T10:19:16;14.00;99.90
25192;DHT22;13143;50.924;5.320;2022-09-17T10:21:42;14.00;99.90
25192;DHT22;13143;50.924;5.320;2022-09-17T10:24:30;14.00;99.90
25192;DHT22;13143;50.924;5.320;2022-09-17T10:27:10;14.00;99.90
25192;DHT22;13143;50.924;5.320;2022-09-17T10:29:45;14.00;99.90
25192;DHT22;13143;50.924;5.320;2022-09-17T10:32:14;14.00;99.90
25192;DHT22;13143;50.924;5.320;2022-09-17T10:34:42;14.10;99.90
25192;DHT22;13143;50.924;5.320;2022-09-17T10:37:50;14.10;99.90
25192;DHT22;13143;50.924;5.320;2022-09-17T10:42:49;14.10;99.90
25192;DHT22;13143;50.924;5.320;2022-09-17T10:45:29;14.10;99.90
25192;DHT22;13143;50.924;5.320;2022-09-17T10:47:56;14.10;99.90
25192;DHT22;13143;50.924;5.320;2022-09-17T10:50:27;14.10;99.90
25192;DHT22;13143;50.924;5.320;2022-09-17T10:52:59;14.10;99.90
25192;DHT22;13143;50.924;5.320;2022-09-17T11:11:50;14.20;99.90
25192;DHT22;13143;50.924;5.320;2022-09-17T11:22:50;14.30;99.90
25192;DHT22;13143;50.924;5.320;2022-09-17T11:28:17;14.30;99.90
25192;DHT22;13143;50.924;5.320;2022-09-17T11:31:08;14.40;99.90
25192;DHT22;13143;50.924;5.320;2022-09-17T11:36:19;14.40;99.90
25192;DHT22;13143;50.924;5.320;2022-09-17T11:38:50;14.40;99.90
25192;DHT22;13143;50.924;5.320;2022-09-17T11:41:32;14.40;99.90
25192;DHT22;13143;50.924;5.320;2022-09-17T11:44:07;14.50;99.90
25192;DHT22;13143;50.924;5.320;2022-09-17T11:46:59;14.50;99.90
25192;DHT22;13143;50.924;5.320;2022-09-17T11:49:57;14.50;99.90
25192;DHT22;13143;50.924;5.320;2022-09-17T11:52:32;14.60;99.90
25192;DHT22;13143;50.924;5.320;2022-09-17T11:57:59;14.60;99.90
25192;DHT22;13143;50.924;5.320;2022-09-17T12:00:28;14.60;99.90
25192;DHT22;13143;50.924;5.320;2022-09-17T12:03:19;14.60;99.90
25192;DHT22;13143;50.924;5.320;2022-09-17T12:05:53;14.70;99.90
25192;DHT22;13143;50.924;5.320;2022-09-17T12:11:26;14.70;99.90
25192;DHT22;13143;50.924;5.320;2022-09-17T12:14:00;14.80;99.90
25192;DHT22;13143;50.924;5.320;2022-09-17T12:19:23;14.80;99.90
25192;DHT22;13143;50.924;5.320;2022-09-17T12:22:12;14.80;99.90
25192;DHT22;13143;50.924;5.320;2022-09-17T12:24:41;14.90;99.90
25192;DHT22;13143;50.924;5.320;2022-09-17T12:30:15;14.90;99.90
25192;DHT22;13143;50.924;5.320;2022-09-17T12:59:57;15.00;99.90
25192;DHT22;13143;50.924;5.320;2022-09-17T13:16:51;15.00;99.90
25192;DHT22;13143;50.924;5.320;2022-09-17T13:19:37;15.00;99.90
25192;DHT22;13143;50.924;5.320;2022-09-17T13:22:05;15.00;99.90
25192;DHT22;13143;50.924;5.320;2022-09-17T13:24:35;15.00;99.90
25192;DHT22;13143;50.924;5.320;2022-09-17T13:27:03;15.00;99.90
25192;DHT22;13143;50.924;5.320;2022-09-17T13:37:59;15.10;99.90
25192;DHT22;13143;50.924;5.320;2022-09-17T13:40:26;15.10;99.90
25192;DHT22;13143;50.924;5.320;2022-09-17T13:42:58;15.20;99.90
25192;DHT22;13143;50.924;5.320;2022-09-17T13:48:21;15.20;99.90
25192;DHT22;13143;50.924;5.320;2022-09-17T13:50:48;15.20;99.90
25192;DHT22;13143;50.924;5.320;2022-09-17T13:55:50;15.20;99.90
25192;DHT22;13143;50.924;5.320;2022-09-17T14:05:56;15.20;99.90
25192;DHT22;13143;50.924;5.320;2022-09-17T14:08:28;15.20;99.90
25192;DHT22;13143;50.924;5.320;2022-09-17T14:10:57;15.10;99.90
25192;DHT22;13143;50.924;5.320;2022-09-17T14:13:46;15.20;99.90
25192;DHT22;13143;50.924;5.320;2022-09-17T14:21:28;15.20;99.90
25192;DHT22;13143;50.924;5.320;2022-09-17T14:23:56;15.20;99.90
25192;DHT22;13143;50.924;5.320;2022-09-17T14:26:38;15.20;99.90
25192;DHT22;13143;50.924;5.320;2022-09-17T14:29:32;15.20;99.90
25192;DHT22;13143;50.924;5.320;2022-09-17T14:32:01;15.20;99.90
25192;DHT22;13143;50.924;5.320;2022-09-17T14:34:27;15.20;99.90
25192;DHT22;13143;50.924;5.320;2022-09-17T14:36:54;15.20;99.90
25192;DHT22;13143;50.924;5.320;2022-09-17T14:39:35;15.20;99.90
25192;DHT22;13143;50.924;5.320;2022-09-17T14:42:06;15.20;99.90
25192;DHT22;13143;50.924;5.320;2022-09-17T14:44:52;15.20;99.90
25192;DHT22;13143;50.924;5.320;2022-09-17T14:47:20;15.20;99.90
25192;DHT22;13143;50.924;5.320;2022-09-17T14:49:46;15.20;99.90
25192;DHT22;13143;50.924;5.320;2022-09-17T14:52:29;15.20;99.90
25192;DHT22;13143;50.924;5.320;2022-09-17T14:55:15;15.20;99.90
25192;DHT22;13143;50.924;5.320;2022-09-17T14:57:43;15.20;99.90
25192;DHT22;13143;50.924;5.320;2022-09-17T15:00:21;15.20;99.90
25192;DHT22;13143;50.924;5.320;2022-09-17T15:02:54;15.20;99.90
25192;DHT22;13143;50.924;5.320;2022-09-17T15:10:52;15.20;99.90
25192;DHT22;13143;50.924;5.320;2022-09-17T15:15:59;15.20;99.90
25192;DHT22;13143;50.924;5.320;2022-09-17T15:18:38;15.30;99.90
25192;DHT22;13143;50.924;5.320;2022-09-17T15:21:14;15.20;99.90
25192;DHT22;13143;50.924;5.320;2022-09-17T15:23:42;15.20;99.90
25192;DHT22;13143;50.924;5.320;2022-09-17T15:26:08;15.20;99.90
25192;DHT22;13143;50.924;5.320;2022-09-17T15:28:37;15.30;99.90
25192;DHT22;13143;50.924;5.320;2022-09-17T15:31:05;15.30;99.90
25192;DHT22;13143;50.924;5.320;2022-09-17T15:33:32;15.30;99.90
25192;DHT22;13143;50.924;5.320;2022-09-17T15:38:29;15.30;99.90
25192;DHT22;13143;50.924;5.320;2022-09-17T15:41:21;15.30;99.90
25192;DHT22;13143;50.924;5.320;2022-09-17T15:43:48;15.30;99.90
25192;DHT22;13143;50.924;5.320;2022-09-17T15:46:26;15.30;99.90
25192;DHT22;13143;50.924;5.320;2022-09-17T15:48:54;15.30;99.90
25192;DHT22;13143;50.924;5.320;2022-09-17T15:51:28;15.30;99.90
25192;DHT22;13143;50.924;5.320;2022-09-17T15:53:59;15.30;99.90
25192;DHT22;13143;50.924;5.320;2022-09-17T15:56:31;15.30;99.90
25192;DHT22;13143;50.924;5.320;2022-09-17T15:59:03;15.30;99.90
25192;DHT22;13143;50.924;5.320;2022-09-17T16:08:54;15.40;99.90
25192;DHT22;13143;50.924;5.320;2022-09-17T16:11:24;15.30;99.90
25192;DHT22;13143;50.924;5.320;2022-09-17T16:13:52;15.40;99.90
25192;DHT22;13143;50.924;5.320;2022-09-17T16:16:21;15.40;99.90
25192;DHT22;13143;50.924;5.320;2022-09-17T16:18:48;15.40;99.90
25192;DHT22;13143;50.924;5.320;2022-09-17T16:21:14;15.40;99.90
25192;DHT22;13143;50.924;5.320;2022-09-17T16:23:41;15.40;99.90
25192;DHT22;13143;50.924;5.320;2022-09-17T16:26:11;15.40;99.90
25192;DHT22;13143;50.924;5.320;2022-09-17T16:28:38;15.40;99.90
25192;DHT22;13143;50.924;5.320;2022-09-17T16:31:04;15.40;99.90
25192;DHT22;13143;50.924;5.320;2022-09-17T16:33:30;15.40;99.90
25192;DHT22;13143;50.924;5.320;2022-09-17T16:35:57;15.40;99.90
25192;DHT22;13143;50.924;5.320;2022-09-17T16:38:24;15.40;99.90
25192;DHT22;13143;50.924;5.320;2022-09-17T16:40:49;15.40;99.90
25192;DHT22;13143;50.924;5.320;2022-09-17T16:43:16;15.40;99.90
25192;DHT22;13143;50.924;5.320;2022-09-17T16:45:43;15.40;99.90
25192;DHT22;13143;50.924;5.320;2022-09-17T16:48:09;15.40;99.90
25192;DHT22;13143;50.924;5.320;2022-09-17T16:50:38;15.40;99.90
25192;DHT22;13143;50.924;5.320;2022-09-17T16:53:05;15.40;99.90
25192;DHT22;13143;50.924;5.320;2022-09-17T16:55:31;15.40;99.90
25192;DHT22;13143;50.924;5.320;2022-09-17T16:57:56;15.40;99.90
25192;DHT22;13143;50.924;5.320;2022-09-17T17:00:23;15.40;99.90
25192;DHT22;13143;50.924;5.320;2022-09-17T17:02:53;15.40;99.90
25192;DHT22;13143;50.924;5.320;2022-09-17T17:05:19;15.40;99.90
25192;DHT22;13143;50.924;5.320;2022-09-17T17:07:45;15.40;99.90
25192;DHT22;13143;50.924;5.320;2022-09-17T17:10:10;15.40;99.90
25192;DHT22;13143;50.924;5.320;2022-09-17T17:12:36;15.40;99.90
25192;DHT22;13143;50.924;5.320;2022-09-17T17:15:03;15.40;99.90
25192;DHT22;13143;50.924;5.320;2022-09-17T17:17:31;15.40;99.90
25192;DHT22;13143;50.924;5.320;2022-09-17T17:19:57;15.40;99.90
25192;DHT22;13143;50.924;5.320;2022-09-17T17:22:23;15.40;99.90
25192;DHT22;13143;50.924;5.320;2022-09-17T17:24:49;15.40;99.90
25192;DHT22;13143;50.924;5.320;2022-09-17T17:27:14;15.40;99.90
25192;DHT22;13143;50.924;5.320;2022-09-17T17:29:40;15.40;99.90
25192;DHT22;13143;50.924;5.320;2022-09-17T17:32:06;15.40;99.90
25192;DHT22;13143;50.924;5.320;2022-09-17T17:34:32;15.30;99.90
25192;DHT22;13143;50.924;5.320;2022-09-17T17:36:58;15.30;99.90
25192;DHT22;13143;50.924;5.320;2022-09-17T17:39:23;15.30;99.90
25192;DHT22;13143;50.924;5.320;2022-09-17T17:41:49;15.30;99.90
25192;DHT22;13143;50.924;5.320;2022-09-17T17:44:15;15.30;99.90
25192;DHT22;13143;50.924;5.320;2022-09-17T17:46:40;15.30;99.90
25192;DHT22;13143;50.924;5.320;2022-09-17T17:49:06;15.30;99.90
25192;DHT22;13143;50.924;5.320;2022-09-17T17:51:33;15.20;99.90
25192;DHT22;13143;50.924;5.320;2022-09-17T17:53:59;15.30;99.90
25192;DHT22;13143;50.924;5.320;2022-09-17T17:56:24;15.20;99.90
25192;DHT22;13143;50.924;5.320;2022-09-17T17:58:55;15.20;99.90
25192;DHT22;13143;50.924;5.320;2022-09-17T18:01:25;15.20;99.90
25192;DHT22;13143;50.924;5.320;2022-09-17T18:03:58;15.20;99.90
25192;DHT22;13143;50.924;5.320;2022-09-17T18:06:25;15.20;99.90
25192;DHT22;13143;50.924;5.320;2022-09-17T18:08:51;15.20;99.90
25192;DHT22;13143;50.924;5.320;2022-09-17T18:11:18;15.10;99.90
25192;DHT22;13143;50.924;5.320;2022-09-17T18:13:43;15.10;99.90
25192;DHT22;13143;50.924;5.320;2022-09-17T18:16:13;15.10;99.90
25192;DHT22;13143;50.924;5.320;2022-09-17T18:18:41;15.10;99.90
25192;DHT22;13143;50.924;5.320;2022-09-17T18:21:09;15.00;99.90
25192;DHT22;13143;50.924;5.320;2022-09-17T18:23:37;15.00;99.90
25192;DHT22;13143;50.924;5.320;2022-09-17T18:26:05;15.00;99.90
25192;DHT22;13143;50.924;5.320;2022-09-17T18:28:33;15.00;99.90
25192;DHT22;13143;50.924;5.320;2022-09-17T18:31:28;15.00;99.90
25192;DHT22;13143;50.924;5.320;2022-09-17T18:34:00;14.90;99.90
25192;DHT22;13143;50.924;5.320;2022-09-17T18:36:28;14.90;99.90
25192;DHT22;13143;50.924;5.320;2022-09-17T18:38:58;14.90;99.90
25192;DHT22;13143;50.924;5.320;2022-09-17T18:41:27;14.90;99.90
25192;DHT22;13143;50.924;5.320;2022-09-17T18:43:53;14.90;99.90
25192;DHT22;13143;50.924;5.320;2022-09-17T18:46:19;14.80;99.90
25192;DHT22;13143;50.924;5.320;2022-09-17T18:48:45;14.80;99.90
25192;DHT22;13143;50.924;5.320;2022-09-17T18:51:12;14.80;99.90
25192;DHT22;13143;50.924;5.320;2022-09-17T18:53:39;14.80;99.90
25192;DHT22;13143;50.924;5.320;2022-09-17T18:56:09;14.70;99.90
25192;DHT22;13143;50.924;5.320;2022-09-17T18:58:36;14.70;99.90
25192;DHT22;13143;50.924;5.320;2022-09-17T19:01:06;14.70;99.90
25192;DHT22;13143;50.924;5.320;2022-09-17T19:03:32;14.70;99.90
25192;DHT22;13143;50.924;5.320;2022-09-17T19:06:03;14.70;99.90
25192;DHT22;13143;50.924;5.320;2022-09-17T19:08:29;14.70;99.90
25192;DHT22;13143;50.924;5.320;2022-09-17T19:10:54;14.70;99.90